Time;durP1;ratioP1;P1;durP2;ratioP2;P2;SDS_P1;SDS_P2;PMS_P1;PMS_P2;Temp;Humidity;BMP_temperature;BMP_pressure;BME280_temperature;BME280_humidity;BME280_pressure;Samples;Min_cycle;Max_cycle;Signal;HPM_P1;HPM_P2
2021/04/11 00:01:31;;;;;;;1.80;1.30;;;16.40;76.50;;;;;;4970908;28;95957;-44
2021/04/11 00:04:02;;;;;;;3.45;1.40;;;16.50;76.70;;;;;;4974296;28;96552;-44
2021/04/11 00:06:33;;;;;;;4.03;1.53;;;16.40;76.60;;;;;;4987181;28;95746;-44
2021/04/11 00:09:06;;;;;;;3.22;1.35;;;16.40;76.50;;;;;;4985559;28;105847;-44
2021/04/11 00:11:37;;;;;;;8.13;1.92;;;16.40;76.80;;;;;;4983587;28;95889;-44
2021/04/11 00:14:08;;;;;;;3.88;1.70;;;16.40;76.50;;;;;;4974869;28;95959;-44
2021/04/11 00:16:38;;;;;;;1.80;1.45;;;16.40;76.50;;;;;;4974555;28;96570;-44
2021/04/11 00:19:10;;;;;;;4.22;1.50;;;16.40;76.40;;;;;;4966887;28;95949;-44
2021/04/11 00:21:39;;;;;;;3.30;2.10;;;16.40;76.50;;;;;;4984301;28;95661;-44
2021/04/11 00:24:09;;;;;;;2.85;1.85;;;16.40;76.50;;;;;;4975276;28;96594;-44
2021/04/11 00:26:42;;;;;;;3.88;2.42;;;16.40;76.50;;;;;;4977037;28;95814;-44
2021/04/11 00:29:13;;;;;;;2.25;1.73;;;16.40;76.50;;;;;;4977906;28;95660;-44
2021/04/11 00:31:43;;;;;;;;;;;16.40;76.50;;;;;;4971337;28;96250;-44
2021/04/11 00:34:13;;;;;;;2.55;1.60;;;16.40;76.80;;;;;;4976496;28;96652;-44
2021/04/11 00:36:45;;;;;;;2.28;1.90;;;16.40;76.80;;;;;;4982221;28;95964;-44
2021/04/11 00:39:14;;;;;;;3.35;2.08;;;16.40;76.50;;;;;;4969472;28;97056;-44
2021/04/11 00:41:48;;;;;;;1.98;1.73;;;16.50;76.40;;;;;;4990880;28;95866;-44
2021/04/11 00:44:20;;;;;;;5.60;2.45;;;16.60;76.30;;;;;;4985035;28;97367;-44
2021/04/11 00:46:54;;;;;;;3.33;2.13;;;16.70;76.10;;;;;;4984090;28;95714;-44
2021/04/11 00:49:38;;;;;;;2.75;2.15;;;16.80;76.00;;;;;;4976571;28;95950;-51
2021/04/11 00:52:14;;;;;;;2.97;1.85;;;16.90;76.10;;;;;;4983873;28;95318;-44
2021/04/11 00:54:44;;;;;;;3.65;2.08;;;17.00;76.50;;;;;;4979288;28;96144;-50
2021/04/11 00:57:14;;;;;;;3.60;2.05;;;17.00;76.30;;;;;;4996778;28;97507;-44
2021/04/11 00:59:44;;;;;;;4.30;2.30;;;17.10;76.10;;;;;;4956655;28;96442;-50
2021/04/11 01:02:15;;;;;;;4.78;2.75;;;17.10;76.10;;;;;;4976643;28;95831;-50
2021/04/11 01:04:47;;;;;;;2.53;1.88;;;17.10;76.10;;;;;;4996488;28;99716;-53
2021/04/11 01:07:21;;;;;;;3.35;2.60;;;17.10;76.10;;;;;;4983935;28;95689;-54
2021/04/11 01:09:54;;;;;;;3.38;2.35;;;17.10;76.00;;;;;;5000503;28;95747;-51
2021/04/11 01:12:25;;;;;;;3.50;2.25;;;17.10;76.20;;;;;;4972318;28;95577;-52
2021/04/11 01:14:55;;;;;;;;;;;17.10;76.20;;;;;;4967463;28;96082;-51
2021/04/11 01:17:28;;;;;;;2.63;2.10;;;17.10;76.00;;;;;;4980818;28;95634;-50
2021/04/11 01:20:01;;;;;;;3.10;2.20;;;17.10;76.00;;;;;;4986824;28;96094;-52
2021/04/11 01:23:04;;;;;;;2.10;1.58;;;17.10;75.90;;;;;;4956160;28;102467;-55
2021/04/11 01:25:39;;;;;;;5.43;2.30;;;17.10;76.00;;;;;;4980081;28;95878;-45
2021/04/11 01:28:17;;;;;;;5.05;2.40;;;17.10;76.10;;;;;;4978679;28;95289;-55
2021/04/11 01:30:49;;;;;;;6.13;2.22;;;17.10;76.20;;;;;;4972889;28;95437;-44
2021/04/11 01:33:25;;;;;;;4.43;2.53;;;17.10;76.30;;;;;;4975732;28;95799;-50
2021/04/11 01:35:57;;;;;;;4.60;2.88;;;17.10;76.20;;;;;;4967849;28;96239;-44
2021/04/11 01:38:29;;;;;;;3.88;2.67;;;17.00;76.00;;;;;;4981136;28;97130;-51
2021/04/11 01:41:16;;;;;;;4.72;2.05;;;17.00;76.40;;;;;;4959603;28;96132;-44
2021/04/11 01:43:50;;;;;;;7.15;2.83;;;17.00;76.30;;;;;;4990908;28;95807;-44
2021/04/11 01:46:24;;;;;;;8.32;2.60;;;17.10;76.40;;;;;;4967422;28;96440;-45
2021/04/11 01:48:58;;;;;;;6.03;2.60;;;17.10;76.30;;;;;;4977828;28;95781;-51
2021/04/11 01:51:39;;;;;;;3.15;2.25;;;17.10;76.30;;;;;;4963994;28;95694;-54
2021/04/11 01:54:22;;;;;;;3.15;1.92;;;17.10;76.20;;;;;;4990087;28;95498;-44
2021/04/11 01:56:52;;;;;;;4.90;2.78;;;17.10;76.10;;;;;;4968742;28;98564;-44
2021/04/11 01:59:30;;;;;;;3.38;1.95;;;17.10;76.00;;;;;;4976327;28;96164;-55
2021/04/11 02:02:05;;;;;;;4.13;2.30;;;17.10;75.90;;;;;;4969424;28;95863;-53
2021/04/11 02:04:35;;;;;;;4.00;2.50;;;17.20;76.10;;;;;;4969182;28;95919;-45
2021/04/11 02:07:09;;;;;;;4.57;2.63;;;17.20;75.90;;;;;;4953676;28;97129;-44
2021/04/11 02:09:48;;;;;;;5.20;2.83;;;17.20;75.80;;;;;;4987311;28;95722;-55
2021/04/11 02:12:34;;;;;;;7.43;3.15;;;17.30;75.80;;;;;;4993414;28;96614;-44
2021/04/11 02:15:21;;;;;;;3.80;2.40;;;17.30;75.80;;;;;;4949470;28;95915;-47
2021/04/11 02:17:54;;;;;;;3.80;2.80;;;17.30;75.70;;;;;;4972656;28;103263;-52
2021/04/11 02:20:26;;;;;;;4.68;3.10;;;17.40;75.60;;;;;;4961807;28;96198;-54
2021/04/11 02:22:56;;;;;;;3.05;2.22;;;17.40;76.00;;;;;;4973090;28;101318;-46
2021/04/11 02:25:35;;;;;;;4.65;2.72;;;17.50;76.10;;;;;;4960009;28;97987;-55
2021/04/11 02:28:12;;;;;;;4.35;2.75;;;17.60;76.20;;;;;;4971931;28;95932;-56
2021/04/11 02:30:53;;;;;;;4.63;2.55;;;17.70;76.20;;;;;;4983924;28;95516;-54
2021/04/11 02:33:25;;;;;;;4.22;3.03;;;17.80;76.30;;;;;;4960352;28;96054;-54
2021/04/11 02:35:57;;;;;;;;;;;17.90;76.30;;;;;;4967999;28;95933;-54
2021/04/11 02:38:30;;;;;;;2.95;2.03;;;17.90;76.20;;;;;;4961745;28;98171;-53
2021/04/11 02:41:01;;;;;;;3.33;2.38;;;18.00;76.20;;;;;;4969247;28;95955;-47
2021/04/11 02:43:39;;;;;;;3.42;2.35;;;18.10;76.20;;;;;;4975874;28;95399;-47
2021/04/11 02:46:11;;;;;;;2.30;2.00;;;18.10;76.10;;;;;;4945738;28;95447;-56
2021/04/11 02:48:43;;;;;;;3.92;2.33;;;18.20;76.00;;;;;;4970514;28;95897;-57
2021/04/11 02:51:27;;;;;;;5.75;3.38;;;18.30;76.00;;;;;;4987472;28;96095;-45
2021/04/11 02:54:03;;;;;;;4.53;3.38;;;18.30;74.00;;;;;;4973839;28;96065;-45
2021/04/11 02:56:42;;;;;;;4.30;2.72;;;18.30;74.50;;;;;;4963402;28;95641;-46
2021/04/11 02:59:16;;;;;;;4.47;2.33;;;18.30;74.70;;;;;;4971984;28;98705;-48
2021/04/11 03:01:52;;;;;;;4.25;2.85;;;18.40;74.80;;;;;;4953777;28;95743;-58
2021/04/11 03:04:27;;;;;;;4.30;3.10;;;18.50;74.80;;;;;;4952826;28;96097;-57
2021/04/11 03:07:11;;;;;;;6.57;2.88;;;18.60;74.40;;;;;;4966821;28;95460;-56
2021/04/11 03:09:48;;;;;;;5.53;2.80;;;18.60;75.30;;;;;;4970610;28;96162;-46
2021/04/11 03:12:23;;;;;;;3.70;2.53;;;18.70;74.60;;;;;;4977675;28;95911;-54
2021/04/11 03:14:57;;;;;;;;;;;18.70;74.60;;;;;;4955628;28;95756;-55
2021/04/11 03:17:30;;;;;;;5.25;3.30;;;18.80;74.10;;;;;;4971051;28;95735;-47
2021/04/11 03:20:10;;;;;;;5.28;3.58;;;18.80;73.70;;;;;;4963729;28;96729;-49
2021/04/11 03:22:45;;;;;;;5.38;3.28;;;18.90;73.30;;;;;;4975598;28;96313;-53
2021/04/11 03:25:20;;;;;;;6.30;3.80;;;18.80;72.70;;;;;;4969083;28;96371;-53
2021/04/11 03:28:14;;;;;;;5.40;3.22;;;18.80;72.40;;;;;;4972946;28;95911;-53
2021/04/11 03:30:56;;;;;;;4.82;3.55;;;18.80;72.10;;;;;;4949879;28;97955;-54
2021/04/11 03:33:28;;;;;;;7.35;3.60;;;18.80;72.00;;;;;;4970425;28;95803;-51
2021/04/11 03:35:58;;;;;;;6.82;3.80;;;18.70;72.00;;;;;;4972426;28;95723;-56
2021/04/11 03:38:30;;;;;;;6.53;3.65;;;18.70;71.90;;;;;;4970490;28;95773;-46
2021/04/11 03:41:01;;;;;;;7.38;4.20;;;18.70;71.90;;;;;;4976030;28;96146;-56
2021/04/11 03:43:55;;;;;;;5.90;3.67;;;18.70;71.90;;;;;;4972586;28;95745;-46
2021/04/11 03:46:47;;;;;;;5.35;4.18;;;18.60;71.80;;;;;;4944064;28;95805;-52
2021/04/11 03:49:26;;;;;;;6.28;3.70;;;18.60;71.90;;;;;;4944912;28;95656;-53
2021/04/11 03:52:07;;;;;;;7.30;4.85;;;18.60;72.00;;;;;;4946823;28;95917;-54
2021/04/11 03:54:41;;;;;;;6.15;4.35;;;18.50;72.00;;;;;;4952472;28;97136;-56
2021/04/11 03:57:26;;;;;;;7.22;4.57;;;18.50;72.10;;;;;;4954242;28;95902;-55
2021/04/11 04:00:11;;;;;;;9.40;4.45;;;18.50;72.00;;;;;;4945544;28;95666;-54
2021/04/11 04:02:56;;;;;;;6.03;3.95;;;18.50;72.10;;;;;;4962929;28;102269;-56
2021/04/11 04:05:33;;;;;;;6.70;4.68;;;18.40;72.60;;;;;;4971868;28;95635;-55
2021/04/11 04:08:07;;;;;;;6.32;4.35;;;18.40;72.10;;;;;;4958497;28;103072;-52
2021/04/11 04:11:08;;;;;;;9.07;5.03;;;18.40;72.30;;;;;;4964203;28;96223;-56
2021/04/11 04:14:05;;;;;;;6.20;4.47;;;18.40;72.40;;;;;;4928743;28;98387;-53
2021/04/11 04:16:59;;;;;;;8.23;5.18;;;18.30;72.40;;;;;;4939765;28;97246;-54
2021/04/11 04:19:51;;;;;;;7.57;5.30;;;18.30;72.50;;;;;;4965697;28;95608;-54
2021/04/11 04:22:59;;;;;;;9.90;5.45;;;18.30;72.40;;;;;;4965679;28;95996;-46
2021/04/11 04:25:39;;;;;;;7.40;5.50;;;18.30;72.50;;;;;;4968572;28;97227;-55
2021/04/11 04:28:17;;;;;;;8.48;5.68;;;18.40;72.70;;;;;;4952829;28;97481;-56
2021/04/11 04:31:04;;;;;;;9.95;5.88;;;18.40;72.70;;;;;;4973279;28;95690;-53
2021/04/11 04:33:54;;;;;;;11.43;5.43;;;18.40;72.80;;;;;;4970051;28;96409;-52
2021/04/11 04:36:48;;;;;;;8.48;5.93;;;18.40;73.30;;;;;;4964011;28;96786;-52
2021/04/11 04:39:52;;;;;;;9.68;6.38;;;18.40;72.60;;;;;;4972452;28;95766;-56
2021/04/11 04:43:02;;;;;;;8.40;5.68;;;18.40;72.60;;;;;;4971685;28;95879;-55
2021/04/11 04:46:19;;;;;;;13.97;6.33;;;18.40;72.70;;;;;;4970561;28;95127;-54
2021/04/11 04:49:08;;;;;;;9.63;6.10;;;18.40;73.10;;;;;;4955059;28;98852;-46
2021/04/11 04:51:45;;;;;;;11.90;6.35;;;18.40;72.90;;;;;;4986492;28;97557;-57
2021/04/11 04:54:38;;;;;;;11.98;5.65;;;18.40;73.00;;;;;;4974073;28;95924;-56
2021/04/11 04:57:22;;;;;;;10.60;6.25;;;18.40;73.00;;;;;;4974311;28;95972;-47
2021/04/11 05:00:02;;;;;;;10.13;6.00;;;18.40;73.20;;;;;;4945114;28;96158;-57
2021/04/11 05:03:08;;;;;;;8.77;5.43;;;18.30;73.30;;;;;;4960833;28;97487;-58
2021/04/11 05:05:57;;;;;;;7.70;5.68;;;18.30;73.40;;;;;;4969294;28;95882;-52
2021/04/11 05:08:38;;;;;;;8.27;6.18;;;18.30;73.50;;;;;;4995099;28;95815;-58
2021/04/11 05:11:16;;;;;;;9.30;7.15;;;18.30;73.40;;;;;;4991448;28;96687;-57
2021/04/11 05:14:05;;;;;;;9.68;6.22;;;18.30;73.60;;;;;;4986791;28;97801;-57
2021/04/11 05:16:45;;;;;;;9.60;6.72;;;18.30;73.60;;;;;;4966570;28;100974;-58
2021/04/11 05:19:19;;;;;;;7.68;5.80;;;18.30;73.60;;;;;;4963295;28;95769;-53
2021/04/11 05:22:23;;;;;;;10.35;6.82;;;18.30;73.80;;;;;;4983708;28;96141;-56
2021/04/11 05:25:12;;;;;;;7.72;6.00;;;18.30;73.70;;;;;;4990374;28;95960;-56
2021/04/11 05:28:05;;;;;;;11.88;7.10;;;18.30;73.80;;;;;;4968787;28;96224;-59
2021/04/11 05:30:47;;;;;;;10.07;6.93;;;18.30;73.80;;;;;;4964125;28;96375;-57
2021/04/11 05:33:22;;;;;;;7.88;5.97;;;18.30;74.00;;;;;;4965964;28;96605;-58
2021/04/11 05:36:05;;;;;;;9.85;6.60;;;18.20;74.10;;;;;;4977237;28;96000;-56
2021/04/11 05:39:02;;;;;;;7.45;6.25;;;18.20;74.20;;;;;;4983853;28;96016;-56
2021/04/11 05:41:41;;;;;;;8.93;6.70;;;18.20;74.20;;;;;;4974989;28;95360;-54
2021/04/11 05:44:17;;;;;;;8.85;6.32;;;18.20;74.10;;;;;;4977899;28;95854;-55
2021/04/11 05:47:09;;;;;;;8.57;6.53;;;18.20;74.30;;;;;;4963572;28;98624;-53
2021/04/11 05:50:11;;;;;;;9.02;6.70;;;18.30;74.50;;;;;;4969041;28;96174;-56
2021/04/11 05:53:15;;;;;;;10.88;7.80;;;18.30;74.40;;;;;;4966681;28;96904;-57
2021/04/11 05:55:50;;;;;;;10.70;6.30;;;18.20;74.70;;;;;;4987457;28;95894;-55
2021/04/11 05:58:24;;;;;;;10.75;6.35;;;18.30;74.50;;;;;;4974438;28;95980;-57
2021/04/11 06:01:24;;;;;;;10.00;6.75;;;18.20;74.50;;;;;;4973866;28;96172;-57
2021/04/11 06:04:03;;;;;;;9.20;7.28;;;18.20;74.40;;;;;;4900810;28;95839;-59
2021/04/11 06:07:02;;;;;;;9.35;6.70;;;18.20;74.50;;;;;;4969782;28;96407;-57
2021/04/11 06:10:01;;;;;;;8.82;6.38;;;18.20;74.40;;;;;;4944544;28;97506;-57
2021/04/11 06:12:37;;;;;;;11.30;7.53;;;18.20;74.30;;;;;;4970497;28;101663;-58
2021/04/11 06:15:15;;;;;;;8.15;6.07;;;18.20;74.30;;;;;;4974821;28;95792;-58
2021/04/11 06:17:51;;;;;;;9.15;6.22;;;18.20;74.30;;;;;;4988696;28;95933;-47
2021/04/11 06:20:21;;;;;;;10.35;6.65;;;18.10;74.30;;;;;;4979021;28;95859;-58
2021/04/11 06:23:06;;;;;;;9.30;6.60;;;18.10;74.60;;;;;;4968384;28;95822;-58
2021/04/11 06:25:44;;;;;;;7.50;5.63;;;18.00;74.50;;;;;;4968971;28;95843;-58
2021/04/11 06:29:13;;;;;;;10.85;6.65;;;18.00;74.60;;;;;;4973465;28;96862;-58
2021/04/11 06:32:14;;;;;;;11.05;5.88;;;18.00;74.50;;;;;;4937811;28;96145;-49
2021/04/11 06:34:52;;;;;;;7.83;5.50;;;18.00;74.40;;;;;;4942616;28;95962;-49
2021/04/11 06:37:22;;;;;;;9.82;5.65;;;18.00;74.30;;;;;;4944808;28;95569;-49
2021/04/11 06:39:52;;;;;;;10.80;5.57;;;18.00;74.20;;;;;;4939621;28;96087;-49
2021/04/11 06:42:39;;;;;;;7.07;5.28;;;18.00;74.20;;;;;;4943866;28;95738;-48
2021/04/11 06:45:23;;;;;;;8.70;5.28;;;17.90;74.20;;;;;;4944630;28;96075;-49
2021/04/11 06:48:07;;;;;;;9.15;4.80;;;17.90;74.20;;;;;;4924400;28;96794;-49
2021/04/11 06:51:02;;;;;;;8.80;4.90;;;17.90;74.20;;;;;;4925428;28;95881;-49
2021/04/11 06:53:44;;;;;;;10.68;5.28;;;17.80;74.10;;;;;;4922072;28;95698;-49
2021/04/11 06:56:57;;;;;;;8.00;4.90;;;17.90;74.10;;;;;;4924577;28;95769;-49
2021/04/11 06:59:33;;;;;;;11.80;6.75;;;17.80;74.00;;;;;;4909131;28;96213;-48
2021/04/11 07:02:04;;;;;;;10.48;5.03;;;17.80;74.00;;;;;;4931047;28;96062;-56
2021/04/11 07:04:34;;;;;;;;;;;17.80;74.10;;;;;;4957168;28;95964;-54
2021/04/11 07:07:45;;;;;;;9.15;5.60;;;17.80;74.10;;;;;;4968521;28;95944;-48
2021/04/11 07:10:45;;;;;;;10.10;6.13;;;17.80;74.10;;;;;;4895230;28;96112;-48
2021/04/11 07:13:35;;;;;;;9.82;6.13;;;17.90;73.90;;;;;;4963969;28;95855;-47
2021/04/11 07:16:24;;;;;;;10.15;5.82;;;17.90;73.70;;;;;;4957983;28;95456;-47
2021/04/11 07:19:45;;;;;;;8.35;5.40;;;17.90;73.90;;;;;;4949217;28;95796;-48
2021/04/11 07:22:15;;;;;;;9.80;5.85;;;17.90;74.20;;;;;;4907730;28;95279;-47
2021/04/11 07:25:14;;;;;;;12.45;6.88;;;17.90;74.30;;;;;;4951269;28;96073;-48
2021/04/11 07:27:59;;;;;;;10.45;5.45;;;17.80;74.40;;;;;;4962176;28;96082;-48
2021/04/11 07:30:41;;;;;;;10.82;6.30;;;17.90;74.40;;;;;;4952052;28;96043;-49
2021/04/11 07:33:22;;;;;;;;;;;17.90;74.30;;;;;;4963430;28;95646;-48
2021/04/11 07:36:04;;;;;;;13.38;6.95;;;17.90;75.00;;;;;;4961677;28;96488;-47
2021/04/11 07:39:13;;;;;;;14.27;6.90;;;17.90;74.90;;;;;;4965420;28;98282;-48
2021/04/11 07:41:57;;;;;;;9.55;6.63;;;18.00;74.90;;;;;;4912163;28;95777;-49
2021/04/11 07:44:44;;;;;;;12.77;6.90;;;17.90;74.90;;;;;;4963019;28;95850;-49
2021/04/11 07:47:17;;;;;;;10.13;6.35;;;17.80;74.90;;;;;;4962012;28;96525;-49
2021/04/11 07:50:28;;;;;;;12.73;7.60;;;17.80;75.00;;;;;;4981658;28;95729;-50
2021/04/11 07:53:22;;;;;;;11.35;7.80;;;17.80;75.10;;;;;;4983882;28;96180;-48
2021/04/11 07:56:13;;;;;;;11.82;7.15;;;17.70;74.90;;;;;;4942310;28;96182;-51
2021/04/11 07:58:43;;;;;;;10.40;6.82;;;17.70;75.00;;;;;;4982576;28;95906;-49
2021/04/11 08:01:34;;;;;;;10.27;7.13;;;17.60;75.00;;;;;;4977121;28;95337;-49
2021/04/11 08:04:23;;;;;;;9.88;5.90;;;17.60;75.00;;;;;;4970244;28;95876;-50
2021/04/11 08:07:16;;;;;;;11.40;5.47;;;17.70;74.90;;;;;;4977224;28;95879;-50
2021/04/11 08:10:12;;;;;;;10.25;5.53;;;17.80;74.70;;;;;;4982709;28;96203;-48
2021/04/11 08:13:09;;;;;;;8.38;5.97;;;17.90;74.10;;;;;;4976888;28;97538;-47
2021/04/11 08:15:46;;;;;;;10.63;5.90;;;17.90;73.90;;;;;;4958609;28;95919;-48
2021/04/11 08:18:21;;;;;;;8.70;5.38;;;18.00;73.90;;;;;;4980426;28;95339;-48
2021/04/11 08:21:12;;;;;;;10.02;7.10;;;17.90;73.90;;;;;;4978775;28;96762;-48
2021/04/11 08:24:13;;;;;;;10.30;6.63;;;18.00;74.00;;;;;;4995265;28;98353;-57
2021/04/11 08:27:05;;;;;;;10.48;5.80;;;17.90;74.20;;;;;;4980754;28;95367;-47
2021/04/11 08:29:49;;;;;;;15.23;6.65;;;17.90;74.40;;;;;;4981648;28;95965;-53
2021/04/11 08:32:44;;;;;;;9.05;5.93;;;17.90;74.60;;;;;;4974098;28;95857;-47
2021/04/11 08:35:35;;;;;;;11.35;6.50;;;17.80;74.70;;;;;;4979683;28;95914;-47
2021/04/11 08:38:44;;;;;;;8.73;6.07;;;17.80;74.80;;;;;;4978196;28;96531;-47
2021/04/11 08:41:34;;;;;;;10.88;6.50;;;17.80;74.80;;;;;;4976749;28;96067;-54
2021/04/11 08:44:35;;;;;;;8.23;5.80;;;17.80;74.90;;;;;;4980327;28;96639;-55
2021/04/11 08:47:27;;;;;;;11.32;6.43;;;17.70;74.80;;;;;;4976191;28;95897;-47
2021/04/11 08:50:05;;;;;;;12.25;6.35;;;17.70;74.80;;;;;;4981134;28;95399;-47
2021/04/11 08:53:05;;;;;;;9.82;6.30;;;17.70;74.80;;;;;;4999016;28;95455;-47
2021/04/11 08:56:03;;;;;;;11.55;5.97;;;17.70;74.90;;;;;;4981295;28;96064;-47
2021/04/11 08:59:01;;;;;;;10.20;6.88;;;17.60;75.10;;;;;;4974843;28;95636;-47
2021/04/11 09:01:37;;;;;;;13.68;6.13;;;17.60;75.20;;;;;;4971528;28;95867;-49
2021/04/11 09:04:13;;;;;;;10.55;6.07;;;17.60;75.30;;;;;;4963357;28;95979;-46
2021/04/11 09:06:52;;;;;;;10.68;6.28;;;17.50;75.40;;;;;;4966921;28;95882;-46
2021/04/11 09:09:28;;;;;;;7.95;5.68;;;17.50;75.40;;;;;;4959777;28;96013;-47
2021/04/11 09:12:21;;;;;;;9.90;5.78;;;17.50;75.50;;;;;;4960421;28;97112;-46
2021/04/11 09:15:09;;;;;;;;;;;17.40;75.50;;;;;;4960437;28;96113;-47
2021/04/11 09:17:58;;;;;;;8.90;6.60;;;17.40;75.50;;;;;;4968245;28;95834;-47
2021/04/11 09:20:34;;;;;;;10.38;6.38;;;17.40;75.60;;;;;;4961721;28;95886;-46
2021/04/11 09:23:26;;;;;;;10.00;6.07;;;17.40;75.50;;;;;;4962858;28;96038;-47
2021/04/11 09:26:29;;;;;;;13.32;6.60;;;17.30;75.50;;;;;;4957633;28;95715;-47
2021/04/11 09:29:11;;;;;;;8.90;5.65;;;17.30;75.50;;;;;;4937337;28;96272;-46
2021/04/11 09:32:29;;;;;;;8.95;6.07;;;17.30;75.60;;;;;;4961504;28;95846;-47
2021/04/11 09:35:21;;;;;;;9.40;6.45;;;17.40;75.10;;;;;;4951756;28;96052;-47
2021/04/11 09:38:13;;;;;;;6.63;4.83;;;17.50;74.80;;;;;;4967405;28;95657;-47
2021/04/11 09:41:14;;;;;;;9.85;5.68;;;17.60;74.60;;;;;;4960396;28;96556;-47
2021/04/11 09:44:11;;;;;;;9.48;4.50;;;17.60;74.40;;;;;;4953809;28;97120;-47
2021/04/11 09:46:53;;;;;;;8.07;4.50;;;17.70;74.50;;;;;;4961938;28;95955;-46
2021/04/11 09:49:41;;;;;;;9.23;5.50;;;17.70;74.80;;;;;;4967113;28;95949;-47
2021/04/11 09:52:35;;;;;;;8.45;5.15;;;17.70;75.00;;;;;;4970782;28;95918;-47
2021/04/11 09:55:26;;;;;;;7.75;5.63;;;17.60;75.10;;;;;;4979585;28;96461;-55
2021/04/11 09:58:18;;;;;;;7.10;5.37;;;17.60;75.20;;;;;;4976252;28;96067;-57
2021/04/11 10:01:07;;;;;;;6.45;5.68;;;17.60;75.30;;;;;;4950066;28;96468;-54
2021/04/11 10:03:57;;;;;;;10.38;5.85;;;17.60;75.30;;;;;;4986567;28;97320;-55
2021/04/11 10:06:52;;;;;;;8.98;5.70;;;17.60;75.30;;;;;;4975130;28;97795;-48
2021/04/11 10:09:45;;;;;;;8.73;5.38;;;17.60;75.30;;;;;;4975947;28;95961;-47
2021/04/11 10:12:34;;;;;;;9.70;6.03;;;17.60;75.20;;;;;;4975818;28;95643;-56
2021/04/11 10:15:27;;;;;;;10.88;6.28;;;17.50;75.10;;;;;;4971622;28;96111;-48
2021/04/11 10:18:17;;;;;;;10.73;5.90;;;17.50;75.10;;;;;;4971057;28;101975;-57
2021/04/11 10:21:08;;;;;;;8.93;5.78;;;17.50;75.10;;;;;;4980462;28;95716;-47
2021/04/11 10:24:16;;;;;;;8.00;5.70;;;17.50;75.10;;;;;;4974677;28;98899;-47
2021/04/11 10:27:28;;;;;;;8.30;5.53;;;17.50;75.10;;;;;;4976425;28;95997;-48
2021/04/11 10:30:00;;;;;;;6.80;4.75;;;17.50;75.10;;;;;;4940672;28;96063;-47
2021/04/11 10:32:49;;;;;;;8.48;5.35;;;17.40;75.20;;;;;;4921513;28;96169;-47
2021/04/11 10:35:34;;;;;;;7.90;5.50;;;17.40;75.20;;;;;;4936931;28;96151;-46
2021/04/11 10:38:22;;;;;;;6.65;5.30;;;17.40;75.30;;;;;;4936222;28;96073;-47
2021/04/11 10:41:18;;;;;;;8.57;5.07;;;17.40;75.30;;;;;;4944992;28;96157;-46
2021/04/11 10:44:12;;;;;;;6.47;5.32;;;17.40;75.30;;;;;;4937995;28;95915;-46
2021/04/11 10:47:21;;;;;;;9.15;5.45;;;17.30;75.50;;;;;;4936449;28;97400;-46
2021/04/11 10:50:16;;;;;;;8.20;4.95;;;17.30;75.80;;;;;;4925842;28;96652;-46
2021/04/11 10:53:28;;;;;;;7.80;5.13;;;17.40;75.70;;;;;;4935040;28;95903;-46
2021/04/11 10:56:17;;;;;;;5.82;4.20;;;17.50;75.10;;;;;;4908131;28;95942;-46
2021/04/11 10:59:13;;;;;;;6.18;4.28;;;17.60;74.80;;;;;;4932403;28;95812;-47
2021/04/11 11:02:05;;;;;;;5.82;4.65;;;17.60;74.50;;;;;;4971807;28;96473;-48
2021/04/11 11:04:59;;;;;;;6.25;4.60;;;17.60;75.20;;;;;;4979454;28;95979;-56
2021/04/11 11:07:50;;;;;;;7.57;4.50;;;17.50;74.80;;;;;;4971187;28;95492;-47
2021/04/11 11:10:30;;;;;;;6.05;4.40;;;17.50;75.10;;;;;;4974115;28;101387;-47
2021/04/11 11:13:05;;;;;;;5.25;4.60;;;17.40;75.20;;;;;;4976950;28;95901;-46
2021/04/11 11:15:58;;;;;;;9.00;5.15;;;17.40;75.40;;;;;;4968911;28;95719;-47
2021/04/11 11:18:50;;;;;;;6.03;4.45;;;17.40;75.50;;;;;;4968929;28;96155;-47
2021/04/11 11:21:57;;;;;;;5.90;4.35;;;17.40;75.60;;;;;;4973028;28;96203;-46
2021/04/11 11:24:46;;;;;;;5.95;4.50;;;17.40;75.50;;;;;;4963090;28;103547;-46
2021/04/11 11:27:54;;;;;;;5.85;4.28;;;17.40;75.60;;;;;;4967386;28;97969;-47
2021/04/11 11:30:49;;;;;;;4.60;3.70;;;17.40;75.60;;;;;;4963479;28;98399;-47
2021/04/11 11:33:53;;;;;;;7.45;4.78;;;17.40;75.60;;;;;;4970124;28;95864;-46
2021/04/11 11:37:04;;;;;;;6.43;4.30;;;17.30;75.50;;;;;;4971660;28;97569;-47
2021/04/11 11:39:59;;;;;;;6.93;4.03;;;17.30;75.60;;;;;;4972744;28;95740;-47
2021/04/11 11:42:52;;;;;;;5.80;4.07;;;17.30;75.60;;;;;;4973125;28;95896;-47
2021/04/11 11:45:34;;;;;;;10.60;4.47;;;17.30;75.50;;;;;;4968588;28;95763;-46
2021/04/11 11:48:41;;;;;;;6.43;3.92;;;17.30;75.50;;;;;;4973010;28;102422;-47
2021/04/11 11:51:50;;;;;;;5.35;4.00;;;17.30;75.50;;;;;;4968345;28;95704;-45
2021/04/11 11:54:50;;;;;;;5.13;4.03;;;17.20;75.40;;;;;;4976237;28;95818;-45
2021/04/11 11:57:37;;;;;;;5.65;3.47;;;17.30;75.50;;;;;;4970318;28;95960;-45
2021/04/11 12:00:11;;;;;;;4.53;3.50;;;17.30;75.50;;;;;;4979180;28;99382;-46
2021/04/11 12:02:55;;;;;;;7.35;4.15;;;17.30;75.50;;;;;;4960905;28;95938;-46
2021/04/11 12:05:43;;;;;;;5.68;3.95;;;17.20;75.30;;;;;;4979214;28;95384;-48
2021/04/11 12:08:32;;;;;;;7.60;3.72;;;17.20;75.50;;;;;;4982850;28;95700;-46
2021/04/11 12:11:11;;;;;;;4.15;3.40;;;17.20;75.40;;;;;;4957450;28;97173;-47
2021/04/11 12:13:55;;;;;;;7.95;3.80;;;17.20;75.40;;;;;;4965281;28;95338;-46
2021/04/11 12:16:47;;;;;;;5.85;3.53;;;17.20;75.40;;;;;;4960117;28;96304;-46
2021/04/11 12:19:50;;;;;;;5.97;3.63;;;17.20;75.40;;;;;;4978483;28;96118;-46
2021/04/11 12:22:48;;;;;;;5.35;4.00;;;17.10;75.50;;;;;;4960975;28;96178;-46
2021/04/11 12:25:21;;;;;;;6.13;3.70;;;17.10;75.40;;;;;;4950215;28;95999;-47
2021/04/11 12:27:52;;;;;;;6.25;3.38;;;17.10;75.30;;;;;;4967660;28;95845;-47
2021/04/11 12:30:28;;;;;;;6.13;3.72;;;17.10;75.30;;;;;;4966325;28;98176;-47
2021/04/11 12:33:32;;;;;;;9.13;4.65;;;17.10;75.30;;;;;;4969976;28;96455;-46
2021/04/11 12:36:14;;;;;;;7.65;3.65;;;17.10;75.30;;;;;;4971108;28;95695;-46
2021/04/11 12:38:51;;;;;;;6.25;4.25;;;17.00;75.30;;;;;;4964295;28;95773;-46
2021/04/11 12:41:34;;;;;;;5.38;3.38;;;17.00;75.20;;;;;;4970809;28;98059;-47
2021/04/11 12:44:14;;;;;;;4.55;3.33;;;17.00;75.20;;;;;;4970618;28;95920;-46
2021/04/11 12:47:03;;;;;;;5.83;3.47;;;17.00;75.20;;;;;;4954127;28;97267;-46
2021/04/11 12:49:43;;;;;;;5.75;3.47;;;17.00;75.10;;;;;;4950411;28;95735;-46
2021/04/11 12:52:40;;;;;;;7.50;2.92;;;17.00;75.20;;;;;;4950682;28;95679;-46
2021/04/11 12:55:25;;;;;;;6.97;3.45;;;17.00;75.10;;;;;;4956149;28;95899;-47
2021/04/11 12:58:04;;;;;;;7.90;3.67;;;17.00;75.10;;;;;;4949523;28;95942;-46
2021/04/11 13:00:41;;;;;;;7.15;3.65;;;17.00;75.20;;;;;;4944678;28;95335;-46
2021/04/11 13:03:35;;;;;;;4.97;3.25;;;17.00;75.10;;;;;;4946682;28;96032;-47
2021/04/11 13:06:17;;;;;;;5.30;3.28;;;16.90;75.20;;;;;;4947456;28;95942;-46
2021/04/11 13:09:26;;;;;;;7.57;3.70;;;16.90;75.20;;;;;;4951138;28;95967;-46
2021/04/11 13:12:44;;;;;;;6.18;3.05;;;16.90;75.20;;;;;;4942672;28;95240;-47
2021/04/11 13:15:44;;;;;;;6.40;3.15;;;16.90;75.20;;;;;;4925419;28;95883;-46
2021/04/11 13:18:20;;;;;;;4.57;2.53;;;16.90;75.20;;;;;;4967741;28;103269;-46
2021/04/11 13:21:26;;;;;;;6.28;3.35;;;16.90;75.30;;;;;;4968117;28;97397;-46
2021/04/11 13:24:12;;;;;;;5.45;2.80;;;16.90;75.20;;;;;;4969144;28;95769;-46
2021/04/11 13:27:04;;;;;;;3.35;2.30;;;16.90;75.10;;;;;;4967005;28;95777;-46
2021/04/11 13:30:03;;;;;;;5.03;2.77;;;16.90;75.10;;;;;;4967178;28;96004;-46
2021/04/11 13:32:48;;;;;;;6.95;3.10;;;16.80;75.00;;;;;;4970464;28;95650;-46
2021/04/11 13:35:25;;;;;;;4.95;3.00;;;16.90;75.10;;;;;;4976692;28;95925;-46
2021/04/11 13:38:13;;;;;;;4.28;2.80;;;16.80;75.10;;;;;;4967812;28;95984;-46
2021/04/11 13:40:47;;;;;;;6.30;3.13;;;16.80;75.10;;;;;;4968744;28;96464;-46
2021/04/11 13:43:53;;;;;;;4.13;2.63;;;16.80;75.10;;;;;;4970043;28;97484;-46
2021/04/11 13:46:43;;;;;;;4.82;2.63;;;16.80;75.10;;;;;;4967219;28;95861;-47
2021/04/11 13:49:43;;;;;;;6.65;3.13;;;16.80;75.10;;;;;;4969856;28;95740;-46
2021/04/11 13:52:13;;;;;;;5.38;2.60;;;16.80;75.20;;;;;;4971522;28;95960;-46
2021/04/11 13:55:22;;;;;;;5.30;2.60;;;16.80;75.20;;;;;;4965448;28;95855;-46
2021/04/11 13:58:23;;;;;;;3.78;2.90;;;16.70;75.10;;;;;;4953162;28;95910;-46
2021/04/11 14:01:08;;;;;;;4.35;2.45;;;16.70;75.10;;;;;;4959048;28;95922;-46
2021/04/11 14:03:57;;;;;;;3.75;2.38;;;16.70;75.10;;;;;;4969413;28;96072;-46
2021/04/11 14:06:39;;;;;;;4.38;2.58;;;16.70;75.20;;;;;;4963733;28;95907;-47
2021/04/11 14:09:20;;;;;;;4.18;2.40;;;16.70;75.30;;;;;;4969922;28;95761;-47
2021/04/11 14:12:13;;;;;;;5.50;2.58;;;16.70;75.20;;;;;;4965285;28;95723;-46
2021/04/11 14:15:07;;;;;;;5.32;2.58;;;16.70;75.20;;;;;;4968731;28;96000;-47
2021/04/11 14:17:56;;;;;;;4.57;2.58;;;16.70;75.20;;;;;;4959612;28;95979;-47
2021/04/11 14:20:35;;;;;;;3.80;2.22;;;16.70;75.20;;;;;;4970543;28;96222;-46